This is the latest recevied weather packets stored in our database for station/object K7SKM. If no packets are shown the sender has not sent any weather packets the latest 10 day(s).
| Time | Temp. | Humidity | Pressure | Rain* | Wind** | Luminosity | Snow |
|---|---|---|---|---|---|---|---|
| 1777921589 | 25.56° C | 38% | 1015.6 hPa | 0 mm | - | 432 W/m² | - |
| 1777921286 | 25.56° C | 39% | 1015.3 hPa | 0 mm | - | 429 W/m² | - |
| 1777920982 | 25° C | 42% | 1015.5 hPa | 0 mm | - | 412 W/m² | - |
| 1777920679 | 24.44° C | 41% | 1015.6 hPa | 0 mm | - | 406 W/m² | - |
| 1777920375 | 25.56° C | 39% | 1015.5 hPa | 0 mm | - | 402 W/m² | - |
| 1777920070 | 25.56° C | 41% | 1015.5 hPa | 0 mm | - | 407 W/m² | - |
| 1777919767 | 25.56° C | 40% | 1015.5 hPa | 0 mm | - | 402 W/m² | - |
| 1777919465 | 25.56° C | 41% | 1015.7 hPa | 0 mm | - | 396 W/m² | - |
| 1777919162 | 26.11° C | 39% | 1015.6 hPa | 0 mm | - | 403 W/m² | - |
| 1777918859 | 26.11° C | 41% | 1015.7 hPa | 0 mm | - | 399 W/m² | - |
| 1777918556 | 25° C | 42% | 1015.8 hPa | 0 mm | - | 393 W/m² | - |
| 1777918254 | 24.44° C | 43% | 1015.8 hPa | 0 mm | - | 385 W/m² | - |
| 1777917953 | 25° C | 41% | 1015.5 hPa | 0 mm | - | 379 W/m² | - |
| 1777917652 | 25.56° C | 41% | 1015.9 hPa | 0 mm | - | 371 W/m² | - |
| 1777917348 | 23.89° C | 45% | 1015.6 hPa | 0 mm | - | 362 W/m² | - |
| 1777917045 | 24.44° C | 42% | 1015.6 hPa | 0 mm | - | 361 W/m² | - |
| 1777916743 | 25° C | 44% | 1015.6 hPa | 0 mm | - | 354 W/m² | - |
| 1777916440 | 24.44° C | 44% | 1015.7 hPa | 0 mm | - | 340 W/m² | - |
| 1777916137 | 23.89° C | 47% | 1015.8 hPa | 0 mm | - | 336 W/m² | - |
| 1777915834 | 22.78° C | 47% | 1015.6 hPa | 0 mm | - | 334 W/m² | - |
| 1777915530 | 23.89° C | 46% | 1015.6 hPa | 0 mm | - | 332 W/m² | - |
| 1777915227 | 24.44° C | 45% | 1015.6 hPa | 0 mm | - | 327 W/m² | - |
| 1777914924 | 23.89° C | 45% | 1015.8 hPa | 0 mm | - | 317 W/m² | - |
| 1777914621 | 24.44° C | 45% | 1015.6 hPa | 0 mm | - | 314 W/m² | - |
| 1777914316 | 23.89° C | 45% | 1015.6 hPa | 0 mm | - | 311 W/m² | - |
* Rain latest hour (hover to see other rain measurements)
** Current wind speed in m/s (hover to see current wind gust speed)